Flight Track Log - Related Links

Times and Time Zones

All times are in EDT time to prevent confusion due to time zone crossing. See the C-GIWP flight status page for this flight to view local times or setup timezone preferences in your user account.

Time Position Orientation Groundspeed Altitude Reporting Facility
EDT Latitude Longitude Course Direction KTS MPH feet Rate Location/Type
Wed 03:11:00 PM 34.5402 -77.9393 353° North  Level FlightAware Approximate
Wed 03:12:00 PM 34.5858 -77.9460 353° North  Level FlightAware Approximate
Wed 03:13:00 PM 34.6315 -77.9527 353° North  Level FlightAware Approximate
Wed 03:14:00 PM 34.6772 -77.9595 353° North  Level FlightAware Approximate
Wed 03:15:00 PM 34.7228 -77.9662 353° North  Level FlightAware Approximate
Wed 03:16:00 PM 34.7685 -77.9730 353° North  Level FlightAware Approximate
Wed 03:17:00 PM 34.8141 -77.9798 353° North  Level FlightAware Approximate
Wed 03:17:36 PM 34.7725 -77.9461 353° North 165 190 5,900  Level Washington Center
Wed 03:18:00 PM 34.8597 -77.9866 353° North  Level FlightAware Approximate
Wed 03:18:36 PM 34.8183 -77.9550 351° North 166 191 5,900  Level Washington Center
Wed 03:19:00 PM 34.9054 -77.9934 353° North  Level FlightAware Approximate
Wed 03:19:37 PM 34.8681 -77.9639 352° North 167 192 5,900  Level Washington Center
Wed 03:20:00 PM 34.9511 -78.0002 353° North  Level FlightAware Approximate
Wed 03:20:37 PM 34.9139 -77.9703 353° North 168 193 5,900  Level Washington Center
Wed 03:21:00 PM 34.9967 -78.0074 353° North  Level FlightAware Approximate
Wed 03:21:38 PM 34.9617 -77.9769 353° North 164 189 6,200  Level Washington Center
Wed 03:22:00 PM 35.0423 -78.0146 353° North  Level FlightAware Approximate
Wed 03:22:39 PM 35.0014 -77.9856 350° North 151 174 6,500  Level Washington Center
Wed 03:23:00 PM 35.0879 -78.0218 353° North  Level FlightAware Approximate
Wed 03:23:39 PM 35.0428 -77.9894 356° North 146 168 6,800  Level Washington Center
Wed 03:24:40 PM 35.0803 -77.9981 349° North 145 167 7,100 375 Climbing Washington Center
Wed 03:25:47 PM 35.1219 -78.0044 353° North 138 159 7,600 347 Climbing Washington Center
Wed 03:26:41 PM 35.1594 -78.0081 355° North 137 158 7,800 157 Climbing Washington Center
Wed 03:27:42 PM 35.1969 -78.0142 352° North 138 159 7,900 50 Climbing Washington Center
Wed 03:28:42 PM 35.2425 -78.0208 353° North 159 183 7,900 50 Level Washington Center
Wed 03:29:43 PM 35.2864 -78.0272 353° North 160 184 8,000 49 Climbing Washington Center
Wed 03:30:44 PM 35.3319 -78.0361 351° North 165 190 8,000  Level Washington Center
Wed 03:31:44 PM 35.3778 -78.0428 353° North 167 192 8,000  Level Washington Center
Wed 03:32:45 PM 35.4214 -78.0517 351° North 164 189 8,000  Level Washington Center
Wed 03:33:45 PM 35.4694 -78.0556 356° North 165 190 8,000  Level Washington Center
Wed 03:34:02 PM 35.4881 -78.0561 359° North 166 191 8,000  Level Washington Center
Wed 03:34:52 PM 35.5214 -78.0650 348° North 167 192 8,000  Level Washington Center
Wed 03:36:02 PM 35.5775 -78.0692 357° North 172 198 8,000  Level Washington Center
Wed 03:37:02 PM 35.6233 -78.0783 351° North 172 198 8,000  Level Washington Center
Wed 03:38:02 PM 35.6711 -78.0850 354° North 172 198 8,000  Level Washington Center
Wed 03:39:02 PM 35.7189 -78.0914 354° North 172 198 8,000  Level Washington Center
Wed 03:40:02 PM 35.7647 -78.0981 353° North 172 198 8,000  Level Washington Center
Wed 03:41:02 PM 35.8103 -78.1097 348° North 172 198 8,000  Level Washington Center
Wed 03:42:02 PM 35.8561 -78.1139 356° North 167 192 8,000  Level Washington Center
Wed 03:42:23 PM 35.8686 -78.1192 341° North 165 190 8,000  Level Washington Center
Wed 03:43:02 PM 35.9019 -78.1231 355° North 157 181 8,000  Level Washington Center
Wed 03:43:42 PM 35.9289 -78.1289 350° North 164 189 8,000  Level Washington Center
Wed 03:44:02 PM 35.9414 -78.1294 358° North 162 186 8,000  Level Washington Center
Wed 03:44:43 PM 35.9747 -78.1331 355° North 165 190 8,000  Level Washington Center
Wed 03:45:02 PM 35.9914 -78.1361 352° North 162 186 8,000  Level Washington Center
Wed 03:45:44 PM 36.0186 -78.1344 North 158 182 8,000  Level Washington Center
Wed 03:46:02 PM 36.0311 -78.1297 17° North 157 181 8,000  Level Washington Center
Wed 03:46:38 PM 36.0606 -78.1228 11° North 169 194 8,000  Level Washington Center
Wed 03:47:02 PM 36.0814 -78.1236 358° North 163 188 8,000  Level Washington Center
Wed 03:47:33 PM 36.1042 -78.1242 359° North 171 197 8,000  Level Washington Center
Wed 03:48:02 PM 36.1314 -78.1225 North 173 199 8,000  Level Washington Center
Wed 03:49:02 PM 36.1756 -78.1111 12° North 183 211 8,000  Level Washington Center
Wed 03:50:02 PM 36.2214 -78.1153 356° North 173 199 8,000  Level Washington Center
Wed 03:51:02 PM 36.2669 -78.1217 354° North 167 192 8,000  Level Washington Center
Wed 03:52:02 PM 36.3083 -78.1386 342° North 167 192 8,000  Level Washington Center
Wed 03:53:02 PM 36.3539 -78.1581 341° North 167 192 8,000  Level Washington Center
Wed 03:54:02 PM 36.3994 -78.1803 339° North 167 192 8,000  Level Washington Center
Wed 03:55:02 PM 36.4428 -78.1997 340° North 167 192 8,000  Level Washington Center
Wed 03:56:02 PM 36.4861 -78.2192 340° North 167 192 8,000  Level Washington Center
Wed 03:57:02 PM 36.5297 -78.2336 345° North 167 192 8,000  Level Washington Center
Wed 03:58:02 PM 36.5753 -78.2406 353° North 162 186 8,000  Level Washington Center
Wed 03:59:02 PM 36.6211 -78.2497 351° North 162 186 8,000  Level Washington Center
Wed 04:00:02 PM 36.6689 -78.2592 351° North 162 186 8,000  Level Washington Center
Wed 04:01:02 PM 36.7083 -78.2708 347° North 167 192 8,000  Level Washington Center
Wed 04:02:02 PM 36.7517 -78.2853 345° North 161 185 8,000  Level Washington Center
Wed 04:03:02 PM 36.7972 -78.3000 345° North 161 185 8,000  Level Washington Center
Wed 04:04:02 PM 36.8431 -78.3092 351° North 161 185 8,000  Level Washington Center
Wed 04:05:02 PM 36.8867 -78.3186 350° North 161 185 8,000  Level Washington Center
Wed 04:06:02 PM 36.9364 -78.3256 354° North 166 191 8,000 50 Level Washington Center
Wed 04:07:02 PM 36.9803 -78.3244 North 161 185 8,100 50 Climbing Washington Center
Wed 04:08:02 PM 37.0283 -78.3183 North 161 185 8,100 -50 Level Washington Center
Wed 04:09:02 PM 37.0806 -78.3175 North 161 185 8,000 -50 Descending Washington Center
Wed 04:10:02 PM 37.1286 -78.3167 North 161 185 8,000 50 Level Washington Center
Wed 04:11:02 PM 37.1722 -78.3208 356° North 161 185 8,100  Climbing Washington Center
Wed 04:12:02 PM 37.2181 -78.3331 348° North 161 185 8,000 -50 Descending Washington Center
Wed 04:13:02 PM 37.2617 -78.3422 351° North 161 185 8,000 50 Level Washington Center
Wed 04:14:02 PM 37.3072 -78.3517 351° North 161 185 8,100  Climbing Washington Center
Wed 04:15:02 PM 37.3550 -78.3586 353° North 161 185 8,000 -50 Descending Washington Center
Wed 04:16:02 PM 37.4050 -78.3658 353° North 161 185 8,000  Level Washington Center
Wed 04:17:02 PM 37.4528 -78.3753 351° North 161 185 8,000  Level Washington Center
Wed 04:18:02 PM 37.4983 -78.3822 353° North 161 185 8,000  Level Washington Center
Wed 04:19:02 PM 37.5461 -78.3919 351° North 161 185 8,000 50 Level Washington Center
Wed 04:20:02 PM 37.5897 -78.3986 353° North 161 185 8,100  Climbing Washington Center
Wed 04:21:02 PM 37.6356 -78.4083 350° North 161 185 8,000  Descending Washington Center
Wed 04:22:02 PM 37.6833 -78.4128 356° North 161 185 8,100 50 Climbing Washington Center
Wed 04:23:02 PM 37.7353 -78.4225 352° North 166 191 8,100  Level Washington Center
Wed 04:24:02 PM 37.7831 -78.4294 353° North 166 191 8,100  Level Washington Center
Wed 04:25:02 PM 37.8308 -78.4392 351° North 166 191 8,100  Level Washington Center
Wed 04:27:08 PM 37.9333 -78.4667 348° North 176 203 8,100  Level Potomac TRACON
Wed 04:28:03 PM 37.9667 -78.4667 360° North 174 200 8,100  Level Potomac TRACON
Wed 04:29:03 PM 38.0167 -78.4833 345° North 176 203 8,100  Level Potomac TRACON
Wed 04:30:03 PM 38.0667 -78.4833 360° North 175 201 8,100 -50 Level Potomac TRACON
Wed 04:31:03 PM 38.1167 -78.5000 345° North 180 207 8,000 -50 Descending Potomac TRACON
Wed 04:32:03 PM 38.1667 -78.5000 360° North 183 211 8,000 50 Level Potomac TRACON
Wed 04:33:03 PM 38.2167 -78.5000 360° North 179 206 8,100 50 Climbing Potomac TRACON
Wed 04:34:04 PM 38.2667 -78.5167 345° North 174 200 8,100  Level Potomac TRACON
Wed 04:34:58 PM 38.3000 -78.5167 360° North 172 198 8,100 -53 Level Potomac TRACON
Wed 04:35:58 PM 38.3500 -78.5333 345° North 176 203 8,000 -48 Descending Potomac TRACON
Wed 04:37:03 PM 38.4019 -78.5431 352° North 184 212 8,000  Level Washington Center
Wed 04:38:03 PM 38.4431 -78.5581 344° North 173 199 8,000 50 Level Washington Center
Wed 04:39:03 PM 38.4883 -78.5917 330° Northwest 168 193 8,100 50 Climbing Washington Center
Wed 04:40:03 PM 38.5211 -78.6142 332° Northwest 163 188 8,100 -50 Level Washington Center
Wed 04:41:03 PM 38.5731 -78.6217 354° North 157 181 8,000  Descending Washington Center
Wed 04:42:03 PM 38.6167 -78.6261 355° North 162 186 8,100  Climbing Washington Center
Wed 04:43:03 PM 38.6689 -78.6256 360° North 169 194 8,000  Descending Washington Center
Wed 04:44:03 PM 38.7106 -78.6247 North 169 194 8,100 50 Climbing Washington Center
Wed 04:45:03 PM 38.7667 -78.6322 354° North 174 200 8,100 -50 Level Washington Center
Wed 04:46:03 PM 38.8167 -78.6344 358° North 179 206 8,000  Descending Washington Center
Wed 04:47:03 PM 38.8644 -78.6364 358° North 179 206 8,100  Climbing Washington Center
Wed 04:48:03 PM 38.9083 -78.6356 North 173 199 8,000 -50 Descending Washington Center
Wed 04:49:03 PM 38.9542 -78.6347 North 173 199 8,000  Level Washington Center
Wed 04:50:03 PM 39.0019 -78.6367 358° North 173 199 8,000 50 Level Washington Center
Wed 04:51:03 PM 39.0539 -78.6469 351° North 173 199 8,100  Climbing Washington Center
Wed 04:52:03 PM 39.0933 -78.6511 355° North 168 193 8,000  Descending Washington Center
Wed 04:53:03 PM 39.1453 -78.6614 351° North 168 193 8,100  Climbing Washington Center
Wed 04:54:03 PM 39.1825 -78.6683 352° North 157 181 8,000  Descending Washington Center
Wed 04:55:03 PM 39.2303 -78.6758 353° North 167 192 8,100  Climbing Washington Center
Wed 04:56:03 PM 39.2758 -78.6856 351° North 167 192 8,000  Descending Washington Center
Wed 04:57:45 PM 39.3594 -78.7011 352° North 168 193 8,100 74 Climbing Cleveland Center
Wed 04:58:46 PM 39.4056 -78.7158 346° North 167 192 8,200  Climbing Cleveland Center
Wed 04:59:46 PM 39.4517 -78.7200 356° North 167 192 8,100 -99 Descending Cleveland Center
Wed 05:00:47 PM 39.5039 -78.7294 352° North 171 197 8,000 -52 Descending Cleveland Center
Wed 05:01:41 PM 39.5436 -78.7364 352° North 169 194 8,000  Level Cleveland Center
Wed 05:02:42 PM 39.5875 -78.7461 350° North 164 189 8,000  Level Cleveland Center
Wed 05:03:43 PM 39.6314 -78.7528 353° North 162 186 8,000  Level Cleveland Center
Wed 05:04:43 PM 39.6772 -78.7569 356° North 161 185 8,000  Level Cleveland Center
Wed 05:05:44 PM 39.7256 -78.7692 349° North 163 188 8,000 49 Level Cleveland Center
Wed 05:06:45 PM 39.7694 -78.7789 350° North 167 192 8,100  Climbing Cleveland Center
Wed 05:07:45 PM 39.8153 -78.7858 353° North 168 193 8,000 -50 Descending Cleveland Center
Wed 05:08:46 PM 39.8614 -78.7928 353° North 167 192 8,000 50 Level Cleveland Center
Wed 05:09:46 PM 39.9136 -78.8019 352° North 169 194 8,100  Climbing Cleveland Center
Wed 05:10:47 PM 39.9594 -78.8089 353° North 170 196 8,000 -49 Descending Cleveland Center
Wed 05:11:48 PM 40.0036 -78.8186 350° North 169 194 8,000  Level Cleveland Center
Wed 05:12:48 PM 40.0514 -78.8256 354° North 170 196 8,000 50 Level Cleveland Center
Wed 05:13:49 PM 40.0997 -78.8353 351° North 169 194 8,100 99 Climbing Cleveland Center
Wed 05:14:49 PM 40.1456 -78.8450 351° North 167 192 8,200 50 Climbing Cleveland Center
Wed 05:15:50 PM 40.1917 -78.8492 356° North 165 190 8,200  Level Cleveland Center
Wed 05:16:51 PM 40.2356 -78.8617 348° North 167 192 8,200 47 Level Cleveland Center
Wed 05:17:57 PM 40.2897 -78.8683 355° North 167 192 8,300 45 Climbing Cleveland Center
Wed 05:19:04 PM 40.3400 -78.8806 350° North 169 194 8,300 -141 Level Cleveland Center
Wed 05:20:05 PM 40.3881 -78.8875 354° North 175 201 8,000 -149 Descending Cleveland Center
Wed 05:21:05 PM 40.4361 -78.8972 351° North 173 199 8,000  Level Cleveland Center
Wed 05:22:06 PM 40.4842 -78.9042 354° North 169 194 8,000  Level Cleveland Center
Wed 05:23:07 PM 40.5322 -78.9114 353° North 168 193 8,000  Level Cleveland Center
Wed 05:24:07 PM 40.5783 -78.9211 351° North 168 193 8,000 -75 Level Cleveland Center
Wed 05:24:27 PM 40.5972 -78.9233 355° North 169 194 7,900  Descending Cleveland Center
Wed 05:25:08 PM 40.6242 -78.9281 352° North 168 193 8,000  Climbing Cleveland Center
Wed 05:25:27 PM 40.6389 -78.9306 353° North 169 194 7,900 -76 Descending Cleveland Center
Wed 05:26:27 PM 40.6850 -78.9375 353° North 174 200 7,900  Level Cleveland Center
Wed 05:27:27 PM 40.7331 -78.9500 349° North 174 200 7,900 50 Level Cleveland Center
Wed 05:28:27 PM 40.7789 -78.9597 351° North 174 200 8,000 50 Climbing Cleveland Center
Wed 05:29:27 PM 40.8228 -78.9669 353° North 168 193 8,000  Level Cleveland Center
Wed 05:30:27 PM 40.8689 -78.9769 351° North 163 188 8,000  Level Cleveland Center
Wed 05:31:27 PM 40.9150 -78.9839 354° North 163 188 8,000  Level Cleveland Center
Wed 05:32:27 PM 40.9608 -78.9911 353° North 163 188 8,000  Level Cleveland Center
Wed 05:33:27 PM 41.0089 -78.9981 354° North 163 188 8,000 -50 Level Cleveland Center
Wed 05:34:27 PM 41.0550 -79.0108 348° North 163 188 7,900  Descending Cleveland Center
Wed 05:35:27 PM 41.1008 -79.0181 353° North 163 188 8,000 50 Climbing Cleveland Center
Wed 05:36:27 PM 41.1469 -79.0225 356° North 163 188 8,000  Level Cleveland Center
Wed 05:37:27 PM 41.1928 -79.0322 351° North 163 188 8,000  Level Cleveland Center
Wed 05:38:27 PM 41.2408 -79.0422 351° North 163 188 8,000  Level Cleveland Center
Wed 05:39:27 PM 41.2889 -79.0522 351° North 163 188 8,000  Level Cleveland Center
Wed 05:40:27 PM 41.3369 -79.0594 354° North 163 188 8,000  Level Cleveland Center
Wed 05:41:27 PM 41.3831 -79.0667 353° North 163 188 8,000  Level Cleveland Center
Wed 05:42:27 PM 41.4289 -79.0767 351° North 163 188 8,000  Level Cleveland Center
Wed 05:43:27 PM 41.4769 -79.0867 351° North 163 188 8,000  Level Cleveland Center
Wed 05:44:27 PM 41.5250 -79.0939 354° North 163 188 8,000  Level Cleveland Center
Wed 05:45:27 PM 41.5731 -79.1039 351° North 163 188 8,000  Level Cleveland Center
Wed 05:46:27 PM 41.6211 -79.1139 351° North 163 188 8,000  Level Cleveland Center
Wed 05:47:27 PM 41.6714 -79.1208 354° North 163 188 8,000  Level Cleveland Center
Wed 05:48:27 PM 41.7133 -79.1339 347° North 176 203 8,000  Level Cleveland Center
Wed 05:49:27 PM 41.7653 -79.1411 354° North 176 203 8,000  Level Cleveland Center
Wed 05:50:27 PM 41.8114 -79.1511 351° North 171 197 8,000  Level Cleveland Center
Wed 05:51:27 PM 41.8594 -79.1586 353° North 166 191 8,000  Level Cleveland Center
Wed 05:52:27 PM 41.9014 -79.1689 350° North 166 191 8,000 50 Level Cleveland Center
Wed 05:53:27 PM 41.9492 -79.1733 356° North 166 191 8,100 50 Climbing Cleveland Center
Wed 05:54:27 PM 42.0017 -79.1861 350° North 171 197 8,100  Level Cleveland Center
Wed 05:55:27 PM 42.0517 -79.1961 352° North 171 197 8,100  Level Cleveland Center
Wed 05:57:14 PM 42.1333 -79.1833 North 180 207 8,100  Level Toronto Center
Wed 05:58:14 PM 42.1667 -79.2000 340° North 180 207 8,100  Level Toronto Center
Wed 05:59:14 PM 42.2167 -79.2000 360° North 170 196 8,100  Level Toronto Center
Wed 06:00:14 PM 42.2667 -79.2000 360° North 170 196 8,100  Level Toronto Center
Wed 06:01:14 PM 42.3167 -79.2333 334° Northwest 170 196 8,100  Level Toronto Center
Wed 06:02:14 PM 42.3667 -79.2333 360° North 170 196 8,100  Level Toronto Center
Wed 06:03:14 PM 42.4167 -79.2500 346° North 170 196 8,100  Level Toronto Center
Wed 06:04:14 PM 42.4500 -79.2500 360° North 170 196 8,100  Level Toronto Center
Wed 06:05:14 PM 42.5000 -79.2500 360° North 170 196 8,100 -50 Level Toronto Center
Wed 06:06:14 PM 42.5500 -79.2500 360° North 180 207 8,000 -200 Descending Toronto Center
Wed 06:07:14 PM 42.6000 -79.2667 346° North 180 207 7,700 -350 Descending Toronto Center
Wed 06:08:14 PM 42.6500 -79.2667 360° North 190 219 7,300 -400 Descending Toronto Center
Wed 06:09:14 PM 42.7167 -79.2667 360° North 190 219 6,900 -400 Descending Toronto Center
Wed 06:10:14 PM 42.7667 -79.2667 360° North 190 219 6,500 -350 Descending Toronto Center
Wed 06:11:14 PM 42.8167 -79.2667 360° North 190 219 6,200 -250 Descending Toronto Center
Wed 06:12:14 PM 42.8667 -79.3000 334° Northwest 180 207 6,000 -100 Descending Toronto Center
Wed 06:13:14 PM 42.9167 -79.3000 360° North 170 196 6,000  Level Toronto Center
Wed 06:14:14 PM 42.9667 -79.2833 14° North 170 196 6,000  Level Toronto Center
Wed 06:15:14 PM 43.0000 -79.2833 360° North 170 196 6,000  Level Toronto Center
Wed 06:16:14 PM 43.0500 -79.2833 360° North 170 196 6,000  Level Toronto Center
Wed 06:17:14 PM 43.1000 -79.2833 360° North 170 196 6,000 -50 Level Toronto Center
Wed 06:18:14 PM 43.1500 -79.2833 360° North 170 196 5,900 -500 Descending Toronto Center
Wed 06:19:14 PM 43.2000 -79.2833 360° North 190 219 5,000 -367 Descending Toronto Center
Wed 06:21:14 PM 43.3000 -79.2833 360° North 180 207 4,800 -167 Descending Toronto Center
Wed 06:22:14 PM 43.3500 -79.2833 360° North 180 207 4,500 -400 Descending Toronto Center
Wed 06:23:14 PM 43.4000 -79.2667 14° North 190 219 4,000 -300 Descending Toronto Center
Wed 06:24:14 PM 43.4500 -79.2667 360° North 180 207 3,900 -300 Descending Toronto Center
Wed 06:25:14 PM 43.5000 -79.2667 360° North 180 207 3,400 -500 Descending Toronto Center
Wed 06:26:14 PM 43.5333 -79.2500 20° North 180 207 2,900 -250 Descending Toronto Center
Wed 06:27:14 PM 43.5833 -79.2500 360° North 160 184 2,900 50 Level Toronto Center
Wed 06:28:14 PM 43.6333 -79.2167 26° Northeast 160 184 3,000  Climbing Toronto Center
Wed 06:29:14 PM 43.6833 -79.2333 346° North 160 184 2,900 -100 Descending Toronto Center
Wed 06:31:14 PM 43.7667 -79.2667 344° North 170 196 2,700 -267 Descending Toronto Center
Wed 06:32:14 PM 43.8167 -79.2833 346° North 180 207 2,100 -267 Descending Toronto Center
Wed 06:34:14 PM 43.9000 -79.3500 330° Northwest 170 196 1,900 -300 Descending Toronto Center
Wed 06:35:14 PM 43.8667 -79.3833 216° Southwest 120 138 1,200 -700 Descending Toronto Center

Login

Don't have an account? Register now (free) for customized features, flight alerts, and more!